Time;durP1;ratioP1;P1;durP2;ratioP2;P2;SDS_P1;SDS_P2;PMS_P1;PMS_P2;Temp;Humidity;BMP_temperature;BMP_pressure;BME280_temperature;BME280_humidity;BME280_pressure;Samples;Min_cycle;Max_cycle;Signal;HPM_P1;HPM_P2
2022/11/14 00:01:06;;;;;;;13.00;8.77;;;;;;;;;;5023558;28;20200;-82
2022/11/14 00:03:35;;;;;;;6.33;5.53;;;;;;;;;;5091462;28;20229;-81
2022/11/14 00:06:07;;;;;;;3.93;3.73;;;;;;;;;;5077240;28;20204;-82
2022/11/14 00:08:35;;;;;;;3.63;3.33;;;;;;;;;;4989582;28;20212;-82
2022/11/14 00:11:04;;;;;;;4.40;4.10;;;;;;;;;;5001067;28;20188;-82
2022/11/14 00:13:32;;;;;;;5.10;4.63;;;;;;;;;;5041596;28;20223;-81
2022/11/14 00:16:00;;;;;;;4.57;2.83;;;;;;;;;;5087267;28;20303;-82
2022/11/14 00:18:29;;;;;;;9.03;7.50;;;;;;;;;;5035787;28;20232;-82
2022/11/14 00:20:58;;;;;;;4.73;4.30;;;;;;;;;;4980323;28;20216;-82
2022/11/14 00:23:27;;;;;;;7.57;6.60;;;;;;;;;;4992063;28;20200;-82
2022/11/14 00:25:56;;;;;;;9.23;5.43;;;;;;;;;;5017542;28;20229;-82
2022/11/14 00:28:24;;;;;;;4.40;4.10;;;;;;;;;;5027825;28;20277;-81
2022/11/14 00:30:52;;;;;;;2.17;2.07;;;;;;;;;;5021396;28;20276;-82
2022/11/14 00:33:21;;;;;;;33.87;5.20;;;;;;;;;;5089008;28;20225;-82
2022/11/14 00:35:53;;;;;;;15.20;7.57;;;;;;;;;;5089713;28;20219;-82
2022/11/14 00:38:22;;;;;;;5.90;3.07;;;;;;;;;;5020558;28;20307;-82
2022/11/14 00:40:51;;;;;;;11.67;8.67;;;;;;;;;;4997235;28;20215;-82
2022/11/14 00:43:20;;;;;;;8.13;5.80;;;;;;;;;;5004766;28;20292;-82
2022/11/14 00:45:49;;;;;;;6.87;6.23;;;;;;;;;;5037533;28;20208;-82
2022/11/14 00:48:17;;;;;;;8.27;5.53;;;;;;;;;;5023832;28;20250;-82
2022/11/14 00:50:46;;;;;;;7.40;6.33;;;;;;;;;;5080661;28;20290;-82
2022/11/14 00:53:14;;;;;;;11.13;8.80;;;;;;;;;;5028487;28;20296;-82
2022/11/14 00:55:43;;;;;;;20.90;16.17;;;;;;;;;;5091994;28;20217;-82
2022/11/14 00:58:13;;;;;;;17.27;11.50;;;;;;;;;;5023317;28;20204;-82
2022/11/14 01:00:41;;;;;;;9.80;8.87;;;;;;;;;;5037246;28;20220;-82
2022/11/14 01:03:10;;;;;;;16.53;13.33;;;;;;;;;;4993843;28;20212;-82
2022/11/14 01:05:41;;;;;;;10.43;8.00;;;;;;;;;;4993665;28;20208;-82
2022/11/14 01:08:09;;;;;;;13.13;10.40;;;;;;;;;;5089442;28;20232;-82
2022/11/14 01:10:39;;;;;;;7.27;6.60;;;;;;;;;;5027602;28;20273;-82
2022/11/14 01:13:08;;;;;;;8.20;7.10;;;;;;;;;;4993686;28;20206;-82
2022/11/14 01:15:40;;;;;;;5.70;4.87;;;;;;;;;;5065458;28;20201;-82
2022/11/14 01:18:09;;;;;;;3.07;2.87;;;;;;;;;;5050989;28;20189;-82
2022/11/14 01:20:39;;;;;;;15.07;10.47;;;;;;;;;;4992760;28;20232;-82
2022/11/14 01:23:07;;;;;;;17.17;11.40;;;;;;;;;;5033072;28;20291;-83
2022/11/14 01:25:36;;;;;;;19.60;14.83;;;;;;;;;;5010614;28;20236;-82
2022/11/14 01:28:06;;;;;;;11.53;7.73;;;;;;;;;;5043104;28;20270;-82
2022/11/14 01:30:34;;;;;;;10.47;8.77;;;;;;;;;;5025631;28;20212;-82
2022/11/14 01:33:04;;;;;;;10.87;7.20;;;;;;;;;;5038175;28;20208;-82
2022/11/14 01:35:33;;;;;;;16.77;10.83;;;;;;;;;;4992473;28;20235;-82
2022/11/14 01:38:02;;;;;;;15.10;11.43;;;;;;;;;;4992029;28;20228;-82
2022/11/14 01:40:30;;;;;;;28.17;17.23;;;;;;;;;;5019199;28;20192;-82
2022/11/14 01:43:23;;;;;;;30.83;17.10;;;;;;;;;;5028925;28;20299;-82
2022/11/14 01:45:53;;;;;;;38.57;25.87;;;;;;;;;;4991907;28;20243;-82
2022/11/14 01:48:24;;;;;;;23.90;15.50;;;;;;;;;;4990516;28;20253;-82
2022/11/14 01:50:55;;;;;;;19.67;11.03;;;;;;;;;;4991437;28;20282;-82
2022/11/14 01:53:23;;;;;;;32.27;17.57;;;;;;;;;;5013803;28;20261;-82
2022/11/14 01:55:53;;;;;;;18.67;10.47;;;;;;;;;;4993085;28;20201;-82
2022/11/14 01:58:21;;;;;;;20.40;13.50;;;;;;;;;;5016615;28;20259;-82
2022/11/14 02:00:50;;;;;;;9.53;6.53;;;;;;;;;;5094061;28;20242;-82
2022/11/14 02:03:19;;;;;;;32.63;16.97;;;;;;;;;;5024289;28;20262;-82
2022/11/14 02:05:49;;;;;;;18.20;13.40;;;;;;;;;;5028904;28;20299;-82
2022/11/14 02:08:18;;;;;;;12.37;9.83;;;;;;;;;;5060094;28;20199;-82
2022/11/14 02:10:47;;;;;;;19.40;11.50;;;;;;;;;;4992162;28;20236;-82
2022/11/14 02:13:15;;;;;;;16.97;11.33;;;;;;;;;;4993265;28;20287;-82
2022/11/14 02:15:43;;;;;;;17.27;14.00;;;;;;;;;;4992232;28;20220;-82
2022/11/14 02:18:12;;;;;;;16.73;11.47;;;;;;;;;;5081728;28;20223;-82
2022/11/14 02:20:42;;;;;;;16.73;11.30;;;;;;;;;;5063284;28;20198;-82
2022/11/14 02:23:11;;;;;;;18.60;12.50;;;;;;;;;;4990680;28;20208;-82
2022/11/14 02:25:40;;;;;;;17.07;11.13;;;;;;;;;;4991613;28;20236;-82
2022/11/14 02:28:08;;;;;;;13.37;8.07;;;;;;;;;;5000297;28;20200;-82
2022/11/14 02:30:36;;;;;;;31.70;15.83;;;;;;;;;;5059765;28;20240;-82
2022/11/14 02:33:05;;;;;;;20.73;8.50;;;;;;;;;;4995505;28;20235;-82
2022/11/14 02:35:38;;;;;;;10.17;8.53;;;;;;;;;;4981325;28;20204;-82
2022/11/14 02:38:08;;;;;;;11.47;9.73;;;;;;;;;;5057334;28;20197;-82
2022/11/14 02:40:36;;;;;;;19.07;11.10;;;;;;;;;;4994959;28;20273;-82
2022/11/14 02:43:05;;;;;;;10.43;7.83;;;;;;;;;;4998993;28;20200;-82
2022/11/14 02:45:33;;;;;;;28.53;17.60;;;;;;;;;;5041828;28;20292;-82
2022/11/14 02:48:01;;;;;;;27.97;17.57;;;;;;;;;;5083463;28;20208;-80
2022/11/14 02:50:30;;;;;;;18.30;13.43;;;;;;;;;;5083441;28;20295;-80
2022/11/14 02:52:58;;;;;;;16.67;11.50;;;;;;;;;;5003264;28;20257;-80
2022/11/14 02:55:28;;;;;;;11.77;7.63;;;;;;;;;;4990590;28;20203;-81
2022/11/14 02:57:56;;;;;;;34.03;17.33;;;;;;;;;;5012729;28;20292;-80
2022/11/14 03:00:24;;;;;;;20.17;14.33;;;;;;;;;;5092136;28;20196;-81
2022/11/14 03:02:53;;;;;;;6.67;4.37;;;;;;;;;;5002112;28;20229;-80
2022/11/14 03:05:22;;;;;;;13.83;10.00;;;;;;;;;;4982376;28;20204;-80
2022/11/14 03:07:53;;;;;;;21.93;14.63;;;;;;;;;;5084965;28;20217;-80
2022/11/14 03:10:22;;;;;;;16.53;10.03;;;;;;;;;;5092035;28;20219;-80
2022/11/14 03:12:54;;;;;;;22.83;11.97;;;;;;;;;;5023004;28;20201;-82
2022/11/14 03:15:23;;;;;;;7.77;7.03;;;;;;;;;;5021524;28;20204;-82
2022/11/14 03:17:52;;;;;;;13.10;7.63;;;;;;;;;;4983393;28;20243;-81
2022/11/14 03:20:20;;;;;;;32.67;18.03;;;;;;;;;;4991954;28;20299;-81
2022/11/14 03:22:49;;;;;;;26.53;15.27;;;;;;;;;;5050525;28;20268;-81
2022/11/14 03:25:17;;;;;;;13.20;9.47;;;;;;;;;;5058158;28;20245;-82
2022/11/14 03:27:45;;;;;;;30.53;15.90;;;;;;;;;;4993344;28;20295;-81
2022/11/14 03:30:15;;;;;;;24.23;15.10;;;;;;;;;;5005151;28;20297;-81
2022/11/14 03:32:44;;;;;;;18.67;14.07;;;;;;;;;;5090917;28;20225;-82
2022/11/14 03:35:12;;;;;;;40.40;24.33;;;;;;;;;;5076554;28;20196;-82
2022/11/14 03:37:40;;;;;;;34.97;18.80;;;;;;;;;;5041356;28;20241;-82
2022/11/14 03:40:09;;;;;;;35.00;14.90;;;;;;;;;;5022613;28;20204;-82
2022/11/14 03:42:38;;;;;;;28.40;15.53;;;;;;;;;;5090075;28;20223;-81
2022/11/14 03:45:07;;;;;;;37.37;23.07;;;;;;;;;;5020651;28;20201;-81
2022/11/14 03:47:36;;;;;;;56.53;28.03;;;;;;;;;;5092155;28;20197;-82
2022/11/14 03:50:05;;;;;;;26.93;16.20;;;;;;;;;;4994403;28;20295;-82
2022/11/14 03:52:33;;;;;;;22.93;15.77;;;;;;;;;;5052552;28;20230;-82
2022/11/14 03:55:02;;;;;;;28.23;16.13;;;;;;;;;;5026599;28;20205;-82
2022/11/14 03:57:30;;;;;;;33.13;18.97;;;;;;;;;;5025275;28;20235;-82
2022/11/14 03:59:58;;;;;;;40.27;19.53;;;;;;;;;;4979313;28;20200;-82
2022/11/14 04:02:27;;;;;;;18.00;11.17;;;;;;;;;;4992026;28;20200;-82
2022/11/14 04:04:56;;;;;;;25.87;14.03;;;;;;;;;;5090760;28;20227;-82
2022/11/14 04:07:25;;;;;;;40.97;20.27;;;;;;;;;;5015058;28;20239;-82
2022/11/14 04:09:53;;;;;;;37.50;20.70;;;;;;;;;;5035215;28;20292;-82
2022/11/14 04:12:22;;;;;;;43.67;21.37;;;;;;;;;;5093256;28;20236;-81
2022/11/14 04:14:50;;;;;;;32.67;17.13;;;;;;;;;;5095216;28;20229;-82
2022/11/14 04:17:18;;;;;;;30.53;19.03;;;;;;;;;;5078839;28;20201;-81
2022/11/14 04:19:47;;;;;;;56.30;27.83;;;;;;;;;;5045057;28;20212;-81
2022/11/14 04:22:16;;;;;;;45.60;22.57;;;;;;;;;;5011366;28;20227;-81
2022/11/14 04:24:45;;;;;;;55.90;23.40;;;;;;;;;;5048359;28;20339;-82
2022/11/14 04:27:13;;;;;;;34.53;20.83;;;;;;;;;;5093407;28;20224;-81
2022/11/14 04:29:41;;;;;;;60.80;28.73;;;;;;;;;;5066936;28;20209;-81
2022/11/14 04:32:10;;;;;;;56.53;26.87;;;;;;;;;;5063931;28;20266;-81
2022/11/14 04:34:38;;;;;;;51.37;21.47;;;;;;;;;;5056932;28;20296;-82
2022/11/14 04:37:06;;;;;;;50.37;24.70;;;;;;;;;;4995765;28;20220;-81
2022/11/14 04:39:36;;;;;;;58.07;25.33;;;;;;;;;;5059077;28;20227;-82
2022/11/14 04:42:05;;;;;;;51.63;25.60;;;;;;;;;;5060924;28;20261;-82
2022/11/14 04:44:33;;;;;;;29.93;16.23;;;;;;;;;;5011585;28;20209;-82
2022/11/14 04:47:01;;;;;;;45.63;23.53;;;;;;;;;;5056854;28;20240;-81
2022/11/14 04:49:30;;;;;;;23.03;10.67;;;;;;;;;;4993632;28;20208;-82
2022/11/14 04:51:58;;;;;;;34.07;17.83;;;;;;;;;;5033250;28;20204;-82
2022/11/14 04:54:26;;;;;;;49.67;22.07;;;;;;;;;;5018619;28;20224;-82
2022/11/14 04:56:56;;;;;;;36.13;17.60;;;;;;;;;;4992736;28;20231;-81
2022/11/14 04:59:24;;;;;;;23.33;11.53;;;;;;;;;;5058198;28;20205;-82
2022/11/14 05:01:53;;;;;;;22.60;11.13;;;;;;;;;;5095093;28;20189;-82
2022/11/14 05:04:21;;;;;;;12.93;8.50;;;;;;;;;;5079323;28;20297;-81
2022/11/14 05:06:50;;;;;;;39.53;21.63;;;;;;;;;;4993627;28;20211;-81
2022/11/14 05:09:18;;;;;;;25.43;13.30;;;;;;;;;;4992569;28;20294;-82
2022/11/14 05:11:47;;;;;;;27.03;16.13;;;;;;;;;;4993178;28;20216;-82
2022/11/14 05:14:16;;;;;;;23.83;14.37;;;;;;;;;;5016919;28;20197;-82
2022/11/14 05:16:45;;;;;;;30.20;17.87;;;;;;;;;;5093683;28;20250;-82
2022/11/14 05:19:13;;;;;;;32.37;16.30;;;;;;;;;;5065800;28;20230;-82
2022/11/14 05:21:41;;;;;;;44.83;22.37;;;;;;;;;;4992200;28;20193;-82
2022/11/14 05:24:10;;;;;;;29.83;15.53;;;;;;;;;;5060765;28;20268;-82
2022/11/14 05:26:38;;;;;;;16.60;11.43;;;;;;;;;;4992235;28;20270;-82
2022/11/14 05:29:06;;;;;;;20.73;11.00;;;;;;;;;;5060870;28;20211;-81
2022/11/14 05:31:36;;;;;;;33.13;17.93;;;;;;;;;;4993891;28;20243;-82
2022/11/14 05:34:04;;;;;;;25.57;13.43;;;;;;;;;;4992588;28;20204;-82
2022/11/14 05:36:33;;;;;;;9.43;5.77;;;;;;;;;;5051726;28;20270;-82
2022/11/14 05:39:01;;;;;;;31.23;17.60;;;;;;;;;;5092141;28;20228;-82
2022/11/14 05:41:29;;;;;;;34.23;17.67;;;;;;;;;;5022800;28;20204;-82
2022/11/14 05:43:58;;;;;;;13.57;9.77;;;;;;;;;;5047172;28;20205;-82
2022/11/14 05:46:26;;;;;;;25.03;11.83;;;;;;;;;;5005380;28;20236;-81
2022/11/14 05:48:56;;;;;;;33.47;18.17;;;;;;;;;;5090250;28;20197;-81
2022/11/14 05:51:24;;;;;;;27.13;15.03;;;;;;;;;;5026922;28;20205;-81
2022/11/14 05:53:54;;;;;;;34.50;10.00;;;;;;;;;;5089443;28;20300;-81
2022/11/14 05:56:22;;;;;;;44.57;19.87;;;;;;;;;;5063584;28;20235;-82
2022/11/14 05:58:50;;;;;;;15.27;11.20;;;;;;;;;;4992886;28;20287;-82
2022/11/14 06:01:19;;;;;;;41.33;18.67;;;;;;;;;;4992845;28;20223;-82
2022/11/14 06:03:48;;;;;;;22.93;15.00;;;;;;;;;;5007821;28;20235;-82
2022/11/14 06:06:19;;;;;;;35.37;19.67;;;;;;;;;;5059201;28;20197;-81
2022/11/14 06:08:48;;;;;;;20.17;12.20;;;;;;;;;;5058313;28;20232;-82
2022/11/14 06:11:17;;;;;;;45.10;21.67;;;;;;;;;;4978682;28;20236;-82
2022/11/14 06:13:46;;;;;;;45.97;20.93;;;;;;;;;;4995134;28;20277;-82
2022/11/14 06:16:15;;;;;;;29.63;14.90;;;;;;;;;;5054514;28;20227;-81
2022/11/14 06:18:44;;;;;;;33.57;16.67;;;;;;;;;;4991587;28;20288;-81
2022/11/14 06:21:14;;;;;;;28.57;15.43;;;;;;;;;;5034355;28;20227;-82
2022/11/14 06:23:44;;;;;;;10.07;8.67;;;;;;;;;;5090145;28;20201;-81
2022/11/14 06:26:15;;;;;;;6.10;4.20;;;;;;;;;;5093342;28;20220;-82
2022/11/14 06:28:44;;;;;;;16.93;8.80;;;;;;;;;;5004704;28;20299;-81
2022/11/14 06:31:12;;;;;;;16.27;11.23;;;;;;;;;;4994549;28;20205;-81
2022/11/14 06:33:40;;;;;;;30.23;16.03;;;;;;;;;;4990751;28;20260;-81
2022/11/14 06:36:09;;;;;;;8.07;5.27;;;;;;;;;;5048159;28;20201;-81
2022/11/14 06:38:38;;;;;;;26.77;12.13;;;;;;;;;;5022306;28;20193;-81
2022/11/14 06:41:10;;;;;;;16.83;10.63;;;;;;;;;;5029264;28;20216;-81
2022/11/14 06:43:40;;;;;;;16.17;11.27;;;;;;;;;;4993053;28;20203;-81
2022/11/14 06:46:09;;;;;;;31.87;15.83;;;;;;;;;;5058625;28;20217;-82
2022/11/14 06:48:37;;;;;;;18.97;11.83;;;;;;;;;;5028931;28;20220;-81
2022/11/14 06:51:07;;;;;;;26.10;11.07;;;;;;;;;;5017746;28;20212;-81
2022/11/14 06:53:36;;;;;;;4.10;3.00;;;;;;;;;;4991293;28;20208;-81
2022/11/14 06:56:05;;;;;;;22.47;12.20;;;;;;;;;;5049054;28;20196;-81
2022/11/14 06:58:37;;;;;;;30.60;16.17;;;;;;;;;;5048931;28;20208;-81
2022/11/14 07:01:07;;;;;;;2.90;2.70;;;;;;;;;;4991089;28;20244;-82
2022/11/14 07:03:35;;;;;;;8.67;7.23;;;;;;;;;;5042133;28;20221;-81
2022/11/14 07:06:04;;;;;;;8.27;7.73;;;;;;;;;;5005531;28;20193;-81
2022/11/14 07:08:33;;;;;;;3.20;2.97;;;;;;;;;;4990906;28;20219;-81
2022/11/14 07:11:02;;;;;;;13.00;7.83;;;;;;;;;;5058724;28;20205;-81
2022/11/14 07:13:31;;;;;;;16.60;9.60;;;;;;;;;;4990562;28;20216;-81
2022/11/14 07:16:01;;;;;;;10.47;6.00;;;;;;;;;;5018031;28;20201;-81
2022/11/14 07:18:30;;;;;;;15.80;10.40;;;;;;;;;;5027054;28;20239;-80
2022/11/14 07:21:00;;;;;;;1.87;1.77;;;;;;;;;;5022229;28;20204;-81
2022/11/14 07:23:29;;;;;;;18.87;8.57;;;;;;;;;;5089148;28;20228;-81
2022/11/14 07:26:00;;;;;;;16.97;9.83;;;;;;;;;;5014532;28;20264;-81
2022/11/14 07:28:29;;;;;;;14.37;10.67;;;;;;;;;;5019716;28;20209;-82
2022/11/14 07:30:58;;;;;;;10.10;8.60;;;;;;;;;;5049510;28;20205;-82
2022/11/14 07:33:28;;;;;;;2.97;2.83;;;;;;;;;;4991427;28;20213;-82
2022/11/14 07:35:56;;;;;;;8.07;7.40;;;;;;;;;;5038235;28;20293;-82
2022/11/14 07:38:24;;;;;;;17.80;4.90;;;;;;;;;;5089152;28;20197;-81
2022/11/14 07:40:54;;;;;;;20.20;12.67;;;;;;;;;;5039678;28;20204;-82
2022/11/14 07:43:27;;;;;;;4.23;4.03;;;;;;;;;;5004153;28;20200;-81
2022/11/14 07:45:59;;;;;;;10.43;7.67;;;;;;;;;;4989854;28;20215;-82
2022/11/14 07:48:29;;;;;;;28.23;14.90;;;;;;;;;;5021360;28;20189;-81
2022/11/14 07:51:00;;;;;;;5.27;4.83;;;;;;;;;;5024722;28;20265;-81
2022/11/14 07:53:28;;;;;;;22.70;13.57;;;;;;;;;;5054044;28;20224;-82
2022/11/14 07:55:57;;;;;;;18.87;11.93;;;;;;;;;;4993533;28;20205;-82
2022/11/14 07:58:25;;;;;;;27.00;14.47;;;;;;;;;;5051845;28;20204;-81
2022/11/14 08:00:54;;;;;;;29.97;14.60;;;;;;;;;;4993757;28;20211;-82
2022/11/14 08:03:23;;;;;;;10.13;5.87;;;;;;;;;;5033419;28;20209;-82
2022/11/14 08:05:53;;;;;;;17.00;10.43;;;;;;;;;;5087898;28;20196;-82
2022/11/14 08:08:21;;;;;;;38.10;17.70;;;;;;;;;;5042613;28;20223;-82
2022/11/14 08:10:50;;;;;;;10.73;9.70;;;;;;;;;;5058429;28;20261;-83
2022/11/14 08:13:18;;;;;;;12.43;9.77;;;;;;;;;;4989363;28;20297;-82
2022/11/14 08:16:04;;;;;;;5.70;5.03;;;;;;;;;;4992680;28;20254;-82
2022/11/14 08:18:39;;;;;;;17.70;10.27;;;;;;;;;;4994011;28;20205;-82
2022/11/14 08:21:09;;;;;;;9.43;5.70;;;;;;;;;;4993632;28;20205;-82
2022/11/14 08:23:38;;;;;;;13.87;9.13;;;;;;;;;;4995487;28;20215;-82
2022/11/14 08:26:07;;;;;;;11.33;8.33;;;;;;;;;;5037553;28;20235;-82
2022/11/14 08:28:35;;;;;;;11.20;5.77;;;;;;;;;;5058615;28;20201;-82
2022/11/14 08:31:04;;;;;;;23.07;13.67;;;;;;;;;;5035925;28;20193;-82
2022/11/14 08:33:33;;;;;;;20.80;10.40;;;;;;;;;;5008078;28;20234;-82
2022/11/14 08:36:02;;;;;;;25.83;11.87;;;;;;;;;;4990027;28;20235;-82
2022/11/14 08:38:32;;;;;;;17.37;11.00;;;;;;;;;;5005716;28;20197;-81
2022/11/14 08:41:04;;;;;;;11.83;7.47;;;;;;;;;;5025078;28;20216;-81
2022/11/14 08:43:33;;;;;;;27.70;15.23;;;;;;;;;;4989591;28;20197;-82
2022/11/14 08:46:04;;;;;;;16.70;11.17;;;;;;;;;;5054868;28;20208;-82
2022/11/14 08:48:33;;;;;;;21.43;13.33;;;;;;;;;;5048473;28;20296;-82
2022/11/14 08:51:05;;;;;;;30.37;16.97;;;;;;;;;;4983600;28;20303;-81
2022/11/14 08:53:39;;;;;;;29.37;17.77;;;;;;;;;;4979063;28;20236;-80
2022/11/14 08:56:08;;;;;;;22.03;13.57;;;;;;;;;;4982200;28;20204;-81
2022/11/14 08:58:38;;;;;;;20.67;14.47;;;;;;;;;;4988327;28;20196;-81
2022/11/14 09:01:08;;;;;;;23.57;11.87;;;;;;;;;;5010158;28;20212;-81
2022/11/14 09:03:37;;;;;;;19.37;12.43;;;;;;;;;;5044141;28;20247;-81
2022/11/14 09:06:06;;;;;;;13.63;9.00;;;;;;;;;;5010029;28;20197;-82
2022/11/14 09:08:36;;;;;;;15.83;7.70;;;;;;;;;;4983315;28;20200;-81
2022/11/14 09:11:06;;;;;;;15.70;8.87;;;;;;;;;;5002152;28;20225;-81
2022/11/14 09:13:37;;;;;;;18.83;11.83;;;;;;;;;;5000855;28;20208;-82
2022/11/14 09:16:06;;;;;;;20.20;11.70;;;;;;;;;;4979710;28;20204;-82
2022/11/14 09:18:35;;;;;;;15.47;10.23;;;;;;;;;;4989787;28;20200;-82
2022/11/14 09:21:04;;;;;;;27.30;13.07;;;;;;;;;;4988700;28;20208;-82
2022/11/14 09:23:33;;;;;;;16.17;10.63;;;;;;;;;;4995086;28;20196;-82
2022/11/14 09:26:04;;;;;;;28.70;15.83;;;;;;;;;;4986492;28;20281;-82
2022/11/14 09:28:34;;;;;;;19.50;10.97;;;;;;;;;;4987595;28;20201;-82
2022/11/14 09:31:02;;;;;;;4.57;4.17;;;;;;;;;;4987362;28;20331;-81
2022/11/14 09:33:31;;;;;;;13.63;6.83;;;;;;;;;;4993061;28;20276;-81
2022/11/14 09:36:00;;;;;;;15.23;8.37;;;;;;;;;;4982992;28;20291;-82
2022/11/14 09:38:29;;;;;;;10.37;7.03;;;;;;;;;;4988259;28;20204;-82
2022/11/14 09:41:11;;;;;;;15.50;9.83;;;;;;;;;;4985170;28;20192;-81
2022/11/14 09:43:48;;;;;;;13.37;10.33;;;;;;;;;;4992678;28;20261;-81
2022/11/14 09:46:21;;;;;;;26.17;15.53;;;;;;;;;;4977370;28;20323;-81
2022/11/14 09:48:50;;;;;;;23.80;15.40;;;;;;;;;;4980842;28;20208;-82
2022/11/14 09:51:20;;;;;;;18.40;11.10;;;;;;;;;;4980420;28;20292;-81
2022/11/14 09:53:52;;;;;;;9.33;5.90;;;;;;;;;;4982693;28;20220;-80
2022/11/14 09:56:24;;;;;;;8.13;6.07;;;;;;;;;;4985507;28;20208;-81
2022/11/14 09:58:55;;;;;;;9.70;8.63;;;;;;;;;;4976096;28;20212;-80
2022/11/14 10:01:30;;;;;;;13.93;9.77;;;;;;;;;;4996534;28;20204;-80
2022/11/14 10:04:03;;;;;;;12.33;9.43;;;;;;;;;;4978080;28;20244;-81
2022/11/14 10:06:41;;;;;;;9.97;6.27;;;;;;;;;;4977901;28;20212;-81
2022/11/14 10:09:19;;;;;;;16.60;10.17;;;;;;;;;;4979107;28;20204;-82
2022/11/14 10:11:53;;;;;;;17.40;13.07;;;;;;;;;;4983135;28;20239;-81
2022/11/14 10:14:49;;;;;;;16.27;10.47;;;;;;;;;;4984189;28;20232;-82
2022/11/14 10:17:23;;;;;;;22.97;10.77;;;;;;;;;;4953772;28;20273;-80
2022/11/14 10:19:56;;;;;;;16.63;12.10;;;;;;;;;;4986136;28;20299;-79
2022/11/14 10:22:30;;;;;;;11.83;10.47;;;;;;;;;;4984729;28;20209;-82
2022/11/14 10:25:04;;;;;;;15.27;11.93;;;;;;;;;;4976714;28;20211;-80
2022/11/14 10:27:34;;;;;;;12.13;8.23;;;;;;;;;;4971059;28;20267;-80
2022/11/14 10:30:05;;;;;;;19.90;12.90;;;;;;;;;;4982156;28;20208;-83
2022/11/14 10:32:44;;;;;;;11.97;7.70;;;;;;;;;;4975760;28;20300;-81
2022/11/14 10:35:15;;;;;;;15.33;9.97;;;;;;;;;;4981374;28;20228;-81
2022/11/14 10:37:49;;;;;;;16.20;10.40;;;;;;;;;;4983233;28;20209;-81
2022/11/14 10:40:19;;;;;;;12.40;8.43;;;;;;;;;;5004301;28;20216;-82
2022/11/14 10:42:49;;;;;;;10.60;7.13;;;;;;;;;;4977893;28;20204;-82
2022/11/14 10:45:24;;;;;;;16.30;11.70;;;;;;;;;;4997613;28;20241;-83
2022/11/14 10:47:56;;;;;;;11.33;8.77;;;;;;;;;;4979414;28;20295;-80
2022/11/14 10:50:27;;;;;;;12.93;7.93;;;;;;;;;;4982063;28;20210;-79
2022/11/14 10:52:59;;;;;;;16.93;11.40;;;;;;;;;;4977298;28;20272;-86
2022/11/14 10:55:28;;;;;;;10.33;9.27;;;;;;;;;;4979881;28;20244;-84
2022/11/14 10:58:16;;;;;;;7.47;6.57;;;;;;;;;;4983654;28;20220;-85
2022/11/14 11:00:45;;;;;;;12.90;8.77;;;;;;;;;;4979356;28;20208;-87
2022/11/14 11:03:15;;;;;;;8.57;6.93;;;;;;;;;;4982240;28;20202;-84
2022/11/14 11:05:50;;;;;;;16.90;12.03;;;;;;;;;;4975862;28;20210;-87
2022/11/14 11:11:30;;;;;;;6.80;6.03;;;;;;;;;;4901845;28;20255;-89
2022/11/14 11:14:01;;;;;;;15.23;10.63;;;;;;;;;;4964216;28;20300;-90
2022/11/14 11:16:30;;;;;;;3.23;2.90;;;;;;;;;;4977313;28;20220;-85
2022/11/14 11:19:14;;;;;;;12.63;7.77;;;;;;;;;;4980870;28;20234;-87
2022/11/14 11:21:50;;;;;;;16.53;9.13;;;;;;;;;;4978339;28;20205;-88
2022/11/14 11:24:31;;;;;;;8.73;7.83;;;;;;;;;;4983229;28;20796;-87
2022/11/14 11:27:21;;;;;;;18.27;12.03;;;;;;;;;;4989547;28;20225;-88
2022/11/14 11:30:02;;;;;;;11.00;7.43;;;;;;;;;;4995788;28;20209;-83
2022/11/14 11:32:30;;;;;;;9.10;5.53;;;;;;;;;;4998807;28;20277;-87
2022/11/14 11:35:02;;;;;;;13.90;12.00;;;;;;;;;;4982211;28;20216;-86
2022/11/14 11:37:44;;;;;;;;;;;;;;;;;;;;;
2022/11/14 11:40:24;;;;;;;16.33;12.40;;;;;;;;;;5003793;28;20200;-88
2022/11/14 11:42:57;;;;;;;14.77;11.70;;;;;;;;;;5005220;28;20236;-85
2022/11/14 11:45:47;;;;;;;8.57;6.37;;;;;;;;;;4999159;28;20543;-86
2022/11/14 11:48:19;;;;;;;8.60;6.27;;;;;;;;;;5018244;28;20206;-88
2022/11/14 11:50:50;;;;;;;15.97;11.47;;;;;;;;;;4997728;28;20210;-89
2022/11/14 11:53:25;;;;;;;13.00;8.73;;;;;;;;;;4991410;28;20215;-89
2022/11/14 11:56:00;;;;;;;14.30;8.63;;;;;;;;;;4987451;28;20316;-88
2022/11/14 11:58:31;;;;;;;14.87;10.63;;;;;;;;;;4989745;28;20197;-89
2022/11/14 12:01:00;;;;;;;11.47;8.30;;;;;;;;;;4988351;28;20217;-88
2022/11/14 12:03:28;;;;;;;17.13;10.63;;;;;;;;;;4990151;28;20241;-90
2022/11/14 12:06:04;;;;;;;10.77;8.10;;;;;;;;;;4995893;28;20294;-87
2022/11/14 12:08:40;;;;;;;14.70;10.17;;;;;;;;;;4994874;28;20210;-87
2022/11/14 12:11:12;;;;;;;16.77;7.87;;;;;;;;;;4995248;28;20198;-92
2022/11/14 12:13:55;;;;;;;11.40;7.77;;;;;;;;;;4986388;28;20207;-90
2022/11/14 12:16:31;;;;;;;9.47;6.80;;;;;;;;;;5007105;28;20225;-87
2022/11/14 12:19:18;;;;;;;8.20;6.37;;;;;;;;;;5003834;28;20204;-87
2022/11/14 12:21:57;;;;;;;11.90;7.57;;;;;;;;;;4991611;28;20201;-88
2022/11/14 12:27:40;;;;;;;9.80;8.13;;;;;;;;;;4998048;28;20233;-88
2022/11/14 12:30:13;;;;;;;5.67;4.93;;;;;;;;;;4996570;28;20215;-90
2022/11/14 12:32:47;;;;;;;10.00;7.70;;;;;;;;;;4997853;28;20204;-90
2022/11/14 12:35:17;;;;;;;9.10;5.47;;;;;;;;;;5002941;28;20234;-87
2022/11/14 12:37:57;;;;;;;2.10;1.80;;;;;;;;;;4991256;28;20211;-90
2022/11/14 12:40:33;;;;;;;6.53;5.73;;;;;;;;;;5003536;28;20214;-88
2022/11/14 12:43:12;;;;;;;8.43;6.27;;;;;;;;;;5013277;28;20209;-89
2022/11/14 12:45:59;;;;;;;14.13;10.47;;;;;;;;;;5001301;28;20196;-89
2022/11/14 12:48:32;;;;;;;9.37;8.17;;;;;;;;;;5026021;28;20294;-89
2022/11/14 12:51:01;;;;;;;8.23;7.17;;;;;;;;;;5006869;28;20203;-89
2022/11/14 12:53:45;;;;;;;18.37;10.20;;;;;;;;;;4993307;28;20558;-87
2022/11/14 12:56:24;;;;;;;10.93;8.07;;;;;;;;;;5003412;28;20318;-88
2022/11/14 12:59:10;;;;;;;11.43;6.53;;;;;;;;;;4989769;28;20211;-90
2022/11/14 13:01:47;;;;;;;10.70;6.97;;;;;;;;;;5007362;28;20207;-88
2022/11/14 13:04:23;;;;;;;11.10;8.13;;;;;;;;;;4992637;28;20294;-87
2022/11/14 13:06:59;;;;;;;10.03;7.73;;;;;;;;;;4992728;28;20211;-91
2022/11/14 13:09:34;;;;;;;8.60;5.43;;;;;;;;;;5007271;28;20214;-90
2022/11/14 13:22:01;;;;;;;9.00;4.50;;;;;;;;;;4948007;28;20211;-87
2022/11/14 13:24:50;;;;;;;10.37;7.83;;;;;;;;;;5003001;28;20204;-87
2022/11/14 13:27:27;;;;;;;11.27;7.50;;;;;;;;;;5004240;28;20247;-89
2022/11/14 13:30:18;;;;;;;8.07;5.87;;;;;;;;;;4986637;28;20823;-88
2022/11/14 13:32:56;;;;;;;8.50;6.77;;;;;;;;;;5009857;28;20213;-88
2022/11/14 13:35:39;;;;;;;2.80;2.60;;;;;;;;;;4994208;28;20246;-86
2022/11/14 13:38:15;;;;;;;7.17;6.30;;;;;;;;;;4993416;28;20198;-88
2022/11/14 13:40:49;;;;;;;11.73;9.53;;;;;;;;;;4986714;28;20246;-91
2022/11/14 13:43:23;;;;;;;10.23;5.93;;;;;;;;;;4991663;28;20200;-88
2022/11/14 13:45:57;;;;;;;16.37;10.87;;;;;;;;;;4992265;28;20211;-88
2022/11/14 13:48:42;;;;;;;6.63;6.00;;;;;;;;;;4985895;28;20202;-87
2022/11/14 13:51:16;;;;;;;7.30;5.70;;;;;;;;;;4988146;28;20201;-90
2022/11/14 13:54:11;;;;;;;7.47;5.97;;;;;;;;;;4996049;28;20217;-87
2022/11/14 13:56:58;;;;;;;16.50;10.07;;;;;;;;;;4995688;28;20240;-88
2022/11/14 13:59:45;;;;;;;11.97;7.30;;;;;;;;;;4999125;28;20233;-88
2022/11/14 14:02:28;;;;;;;7.53;5.97;;;;;;;;;;5010497;28;20217;-88
2022/11/14 14:05:04;;;;;;;8.70;7.83;;;;;;;;;;4991191;28;20339;-88
2022/11/14 14:07:42;;;;;;;10.47;7.27;;;;;;;;;;5006881;28;20319;-88
2022/11/14 14:10:22;;;;;;;5.07;4.67;;;;;;;;;;4986573;28;20211;-88
2022/11/14 14:12:58;;;;;;;7.87;6.93;;;;;;;;;;5019561;28;20261;-87
2022/11/14 14:15:31;;;;;;;4.13;3.17;;;;;;;;;;5009266;28;20232;-88
2022/11/14 14:18:07;;;;;;;5.33;3.27;;;;;;;;;;5008495;28;20227;-89
2022/11/14 14:20:43;;;;;;;7.70;6.50;;;;;;;;;;5002456;28;20203;-88
2022/11/14 14:23:29;;;;;;;10.57;6.60;;;;;;;;;;4987824;28;20244;-87
2022/11/14 14:26:02;;;;;;;7.73;6.93;;;;;;;;;;4991843;28;20238;-86
2022/11/14 14:28:37;;;;;;;8.30;5.57;;;;;;;;;;5013519;28;20273;-91
2022/11/14 14:31:12;;;;;;;5.47;5.07;;;;;;;;;;4988419;28;20211;-90
2022/11/14 14:33:42;;;;;;;4.47;4.07;;;;;;;;;;4999691;28;20248;-87
2022/11/14 14:36:21;;;;;;;8.80;5.77;;;;;;;;;;4991147;28;20206;-90
2022/11/14 14:38:50;;;;;;;9.47;8.00;;;;;;;;;;4993428;28;20218;-90
2022/11/14 14:41:20;;;;;;;4.10;2.87;;;;;;;;;;4995441;28;20202;-90
2022/11/14 14:43:53;;;;;;;8.23;6.60;;;;;;;;;;4997652;28;20214;-91
2022/11/14 14:46:33;;;;;;;15.40;13.33;;;;;;;;;;5006181;28;20211;-90
2022/11/14 14:49:03;;;;;;;17.70;14.47;;;;;;;;;;4998655;28;20215;-91
2022/11/14 14:51:33;;;;;;;17.80;15.87;;;;;;;;;;4992494;28;20204;-91
2022/11/14 14:54:01;;;;;;;17.13;14.47;;;;;;;;;;5039709;28;20294;-91
2022/11/14 14:56:31;;;;;;;13.80;12.40;;;;;;;;;;5017288;28;20202;-89
2022/11/14 14:59:15;;;;;;;12.80;11.07;;;;;;;;;;4988771;28;20203;-91
2022/11/14 15:01:45;;;;;;;17.87;16.00;;;;;;;;;;4984998;28;20239;-91
2022/11/14 15:04:16;;;;;;;20.90;16.73;;;;;;;;;;5004158;28;20245;-88
2022/11/14 15:06:45;;;;;;;20.90;15.80;;;;;;;;;;4986875;28;20204;-87